PAED METAR and TAF weather

Enter ICAO airport designator
Station Type Date Time Source
PAED METAR 2019/10/23 12:36 UTC NOAA

PAED 231236Z AUTO 00000KT 10SM BKN055 BKN070 02/00 A2936 RMK AO2 DZB01E21 PRESFR SLP939 $


Station Type Date Time Source
PAED Decoded METAR 2019/10/23 12:36 UTC NOAA

Anchorage, Elmendorf Air Force Base, AK, United States (PAED) 61-15-11N 149-47-38W 59M
Oct 23, 2019 - 08:36 AM EDT / 2019.10.23 1236 UTC
Wind: Calm:0
Visibility: 10 mile(s):0
Sky conditions: mostly cloudy
Temperature: 35 F (2 C)
Dew Point: 32 F (0 C)
Relative Humidity: 86%
Pressure (altimeter): 29.36 in. Hg (994 hPa)
Pressure tendency: falling rapidly
ob: PAED 231236Z AUTO 00000KT 10SM BKN055 BKN070 02/00 A2936 RMK AO2 DZB01E21 PRESFR SLP939
cycle: 12

Station Type Date Time Source
PAED TAF 2019/10/23 11:12 UTC NOAA

TAF TAF PAED 231100Z 2311/2417 VRB06KT 9999 BKN060 BKN130 WS020/14030KT QNH2920INS
BECMG 2315/2316 32012KT 9999 BKN050 BKN100 BKN150 WS020/14030KT 620509 QNH2909INS
BECMG 2318/2320 12010G15KT 9999 VCSH BKN050 BKN100 WS020/14030KT 610509 QNH2908INS
BECMG 2322/2323 13015G25KT 9999 NSW SCT070 BKN100 WS020/14040KT 621009 520306 QNH2906INS TX06/2400Z TN02/2313Z

Example: see airport list